Terminal Aerodrome Forecast
Issued by NWS

Current Version | Previous Version | Text Only | Print | Product List | Glossary On
Versions: 1 2 3 4 5 6 7 8 9 10 11 12 13 14 15 16 17 18 19 20 21 22 23 24 25 26 27 28 29 30
000
FTUS41 KOKX 022320
TAFTEB
TAF
KTEB 022320Z 0300/0324 VRB04KT 6SM -RA BKN009
     FM030400 04008KT P6SM SCT009 BKN015
     FM031300 04006KT P6SM SCT015 OVC030
     FM031400 09008KT P6SM SCT030 OVC050
     FM031900 12008KT P6SM BKN050=

USA.gov is the U.S. government's official web portal to all federal, state and local government web resources and services.